sensor_id;sensor_type;location;lat;lon;timestamp;temperature;humidity
26081;DHT22;13991;51.174;4.438;2024-01-16T00:01:59;4.50;99.90
26081;DHT22;13991;51.174;4.438;2024-01-16T00:04:25;4.60;99.90
26081;DHT22;13991;51.174;4.438;2024-01-16T00:06:52;4.70;99.90
26081;DHT22;13991;51.174;4.438;2024-01-16T00:09:18;4.60;99.90
26081;DHT22;13991;51.174;4.438;2024-01-16T00:11:43;4.60;99.90
26081;DHT22;13991;51.174;4.438;2024-01-16T00:14:09;4.50;99.90
26081;DHT22;13991;51.174;4.438;2024-01-16T00:16:42;4.60;99.90
26081;DHT22;13991;51.174;4.438;2024-01-16T00:19:10;4.50;99.90
26081;DHT22;13991;51.174;4.438;2024-01-16T00:21:43;4.50;99.90
26081;DHT22;13991;51.174;4.438;2024-01-16T00:24:11;4.50;99.90
26081;DHT22;13991;51.174;4.438;2024-01-16T00:26:36;4.40;99.90
26081;DHT22;13991;51.174;4.438;2024-01-16T00:29:02;4.40;99.90
26081;DHT22;13991;51.174;4.438;2024-01-16T00:31:28;4.40;99.90
26081;DHT22;13991;51.174;4.438;2024-01-16T00:33:53;4.40;99.90
26081;DHT22;13991;51.174;4.438;2024-01-16T00:36:19;4.40;99.90
26081;DHT22;13991;51.174;4.438;2024-01-16T00:38:45;4.40;99.90
26081;DHT22;13991;51.174;4.438;2024-01-16T00:41:12;4.40;99.90
26081;DHT22;13991;51.174;4.438;2024-01-16T00:43:40;4.30;99.90
26081;DHT22;13991;51.174;4.438;2024-01-16T00:46:06;4.30;99.90
26081;DHT22;13991;51.174;4.438;2024-01-16T00:48:32;4.40;99.90
26081;DHT22;13991;51.174;4.438;2024-01-16T00:50:57;4.50;99.90
26081;DHT22;13991;51.174;4.438;2024-01-16T00:53:23;4.40;99.90
26081;DHT22;13991;51.174;4.438;2024-01-16T00:55:49;4.40;99.90
26081;DHT22;13991;51.174;4.438;2024-01-16T00:58:15;4.40;99.90
26081;DHT22;13991;51.174;4.438;2024-01-16T01:00:41;4.30;99.90
26081;DHT22;13991;51.174;4.438;2024-01-16T01:03:07;4.20;99.90
26081;DHT22;13991;51.174;4.438;2024-01-16T01:05:32;4.10;99.90
26081;DHT22;13991;51.174;4.438;2024-01-16T01:07:58;4.10;99.90
26081;DHT22;13991;51.174;4.438;2024-01-16T01:10:24;4.10;99.90
26081;DHT22;13991;51.174;4.438;2024-01-16T01:12:50;4.00;99.90
26081;DHT22;13991;51.174;4.438;2024-01-16T01:15:18;4.00;99.90
26081;DHT22;13991;51.174;4.438;2024-01-16T01:17:43;4.00;99.90
26081;DHT22;13991;51.174;4.438;2024-01-16T01:20:09;3.90;99.90
26081;DHT22;13991;51.174;4.438;2024-01-16T01:22:37;3.90;99.90
26081;DHT22;13991;51.174;4.438;2024-01-16T01:25:03;3.90;99.90
26081;DHT22;13991;51.174;4.438;2024-01-16T01:27:29;3.90;99.90
26081;DHT22;13991;51.174;4.438;2024-01-16T01:29:55;4.10;99.90
26081;DHT22;13991;51.174;4.438;2024-01-16T01:32:21;4.00;99.90
26081;DHT22;13991;51.174;4.438;2024-01-16T01:34:47;4.00;99.90
26081;DHT22;13991;51.174;4.438;2024-01-16T01:37:12;4.00;99.90
26081;DHT22;13991;51.174;4.438;2024-01-16T01:39:38;3.90;99.90
26081;DHT22;13991;51.174;4.438;2024-01-16T01:42:04;4.00;99.90
26081;DHT22;13991;51.174;4.438;2024-01-16T01:44:29;3.90;99.90
26081;DHT22;13991;51.174;4.438;2024-01-16T01:46:56;3.90;99.90
26081;DHT22;13991;51.174;4.438;2024-01-16T01:49:23;3.80;99.90
26081;DHT22;13991;51.174;4.438;2024-01-16T01:51:49;3.90;99.90
26081;DHT22;13991;51.174;4.438;2024-01-16T01:54:16;4.00;99.90
26081;DHT22;13991;51.174;4.438;2024-01-16T01:56:46;3.90;99.90
26081;DHT22;13991;51.174;4.438;2024-01-16T01:59:14;3.70;99.90
26081;DHT22;13991;51.174;4.438;2024-01-16T02:01:41;3.80;99.90
26081;DHT22;13991;51.174;4.438;2024-01-16T02:04:07;3.80;99.90
26081;DHT22;13991;51.174;4.438;2024-01-16T02:06:34;3.70;99.90
26081;DHT22;13991;51.174;4.438;2024-01-16T02:09:00;3.70;99.90
26081;DHT22;13991;51.174;4.438;2024-01-16T02:11:26;3.60;99.90
26081;DHT22;13991;51.174;4.438;2024-01-16T02:13:52;3.60;99.90
26081;DHT22;13991;51.174;4.438;2024-01-16T02:16:23;3.70;99.90
26081;DHT22;13991;51.174;4.438;2024-01-16T02:18:52;3.60;99.90
26081;DHT22;13991;51.174;4.438;2024-01-16T02:21:23;3.70;99.90
26081;DHT22;13991;51.174;4.438;2024-01-16T02:23:51;3.50;99.90
26081;DHT22;13991;51.174;4.438;2024-01-16T02:26:20;3.60;99.90
26081;DHT22;13991;51.174;4.438;2024-01-16T02:28:46;3.50;99.90
26081;DHT22;13991;51.174;4.438;2024-01-16T02:31:11;3.50;99.90
26081;DHT22;13991;51.174;4.438;2024-01-16T02:33:37;3.40;99.90
26081;DHT22;13991;51.174;4.438;2024-01-16T02:36:04;3.40;99.90
26081;DHT22;13991;51.174;4.438;2024-01-16T02:38:29;3.40;99.90
26081;DHT22;13991;51.174;4.438;2024-01-16T02:40:55;3.40;99.90
26081;DHT22;13991;51.174;4.438;2024-01-16T02:43:21;3.30;99.90
26081;DHT22;13991;51.174;4.438;2024-01-16T02:45:46;3.30;99.90
26081;DHT22;13991;51.174;4.438;2024-01-16T02:48:13;3.40;99.90
26081;DHT22;13991;51.174;4.438;2024-01-16T02:50:38;3.30;99.90
26081;DHT22;13991;51.174;4.438;2024-01-16T02:53:04;3.30;99.90
26081;DHT22;13991;51.174;4.438;2024-01-16T02:55:30;3.30;99.90
26081;DHT22;13991;51.174;4.438;2024-01-16T02:57:55;3.30;99.90
26081;DHT22;13991;51.174;4.438;2024-01-16T03:00:21;3.30;99.90
26081;DHT22;13991;51.174;4.438;2024-01-16T03:02:48;3.30;99.90
26081;DHT22;13991;51.174;4.438;2024-01-16T03:05:14;3.30;99.90
26081;DHT22;13991;51.174;4.438;2024-01-16T03:07:40;3.20;99.90
26081;DHT22;13991;51.174;4.438;2024-01-16T03:10:06;3.10;99.90
26081;DHT22;13991;51.174;4.438;2024-01-16T03:12:32;3.10;99.90
26081;DHT22;13991;51.174;4.438;2024-01-16T03:14:58;3.20;99.90
26081;DHT22;13991;51.174;4.438;2024-01-16T03:17:24;3.10;99.90
26081;DHT22;13991;51.174;4.438;2024-01-16T03:19:49;3.20;99.90
26081;DHT22;13991;51.174;4.438;2024-01-16T03:22:15;3.20;99.90
26081;DHT22;13991;51.174;4.438;2024-01-16T03:24:41;3.20;99.90
26081;DHT22;13991;51.174;4.438;2024-01-16T03:27:06;3.20;99.90
26081;DHT22;13991;51.174;4.438;2024-01-16T03:29:32;3.20;99.90
26081;DHT22;13991;51.174;4.438;2024-01-16T03:31:59;3.10;99.90
26081;DHT22;13991;51.174;4.438;2024-01-16T03:34:25;3.20;99.90
26081;DHT22;13991;51.174;4.438;2024-01-16T03:36:51;3.10;99.90
26081;DHT22;13991;51.174;4.438;2024-01-16T03:39:16;3.20;99.90
26081;DHT22;13991;51.174;4.438;2024-01-16T03:41:42;3.10;99.90
26081;DHT22;13991;51.174;4.438;2024-01-16T03:44:08;3.20;99.90
26081;DHT22;13991;51.174;4.438;2024-01-16T03:46:33;3.00;99.90
26081;DHT22;13991;51.174;4.438;2024-01-16T03:48:59;3.00;99.90
26081;DHT22;13991;51.174;4.438;2024-01-16T03:51:25;3.00;99.90
26081;DHT22;13991;51.174;4.438;2024-01-16T03:53:50;3.00;99.90
26081;DHT22;13991;51.174;4.438;2024-01-16T03:56:16;3.00;99.90
26081;DHT22;13991;51.174;4.438;2024-01-16T03:58:42;2.90;99.90
26081;DHT22;13991;51.174;4.438;2024-01-16T04:01:08;2.90;99.90
26081;DHT22;13991;51.174;4.438;2024-01-16T04:03:34;3.00;99.90
26081;DHT22;13991;51.174;4.438;2024-01-16T04:06:00;3.00;99.90
26081;DHT22;13991;51.174;4.438;2024-01-16T04:08:26;2.90;99.90
26081;DHT22;13991;51.174;4.438;2024-01-16T04:10:52;2.90;99.90
26081;DHT22;13991;51.174;4.438;2024-01-16T04:13:17;3.00;99.90
26081;DHT22;13991;51.174;4.438;2024-01-16T04:15:43;3.10;99.90
26081;DHT22;13991;51.174;4.438;2024-01-16T04:18:09;2.90;99.90
26081;DHT22;13991;51.174;4.438;2024-01-16T04:20:35;3.00;99.90
26081;DHT22;13991;51.174;4.438;2024-01-16T04:23:01;2.90;99.90
26081;DHT22;13991;51.174;4.438;2024-01-16T04:25:27;3.00;99.90
26081;DHT22;13991;51.174;4.438;2024-01-16T04:27:52;2.90;99.90
26081;DHT22;13991;51.174;4.438;2024-01-16T04:30:18;2.90;99.90
26081;DHT22;13991;51.174;4.438;2024-01-16T04:32:45;2.90;99.90
26081;DHT22;13991;51.174;4.438;2024-01-16T04:35:11;3.00;99.90
26081;DHT22;13991;51.174;4.438;2024-01-16T04:37:37;3.00;99.90
26081;DHT22;13991;51.174;4.438;2024-01-16T04:40:03;2.90;99.90
26081;DHT22;13991;51.174;4.438;2024-01-16T04:42:30;2.90;99.90
26081;DHT22;13991;51.174;4.438;2024-01-16T04:44:55;2.90;99.90
26081;DHT22;13991;51.174;4.438;2024-01-16T04:47:21;2.90;99.90
26081;DHT22;13991;51.174;4.438;2024-01-16T04:49:47;2.80;99.90
26081;DHT22;13991;51.174;4.438;2024-01-16T04:52:13;2.80;99.90
26081;DHT22;13991;51.174;4.438;2024-01-16T04:54:39;2.80;99.90
26081;DHT22;13991;51.174;4.438;2024-01-16T04:57:05;2.80;99.90
26081;DHT22;13991;51.174;4.438;2024-01-16T04:59:30;2.80;99.90
26081;DHT22;13991;51.174;4.438;2024-01-16T05:01:56;2.80;99.90
26081;DHT22;13991;51.174;4.438;2024-01-16T05:04:21;2.80;99.90
26081;DHT22;13991;51.174;4.438;2024-01-16T05:06:51;2.80;99.90
26081;DHT22;13991;51.174;4.438;2024-01-16T05:09:17;2.80;99.90
26081;DHT22;13991;51.174;4.438;2024-01-16T05:11:45;2.70;99.90
26081;DHT22;13991;51.174;4.438;2024-01-16T05:14:10;2.60;99.90
26081;DHT22;13991;51.174;4.438;2024-01-16T05:16:36;2.60;99.90
26081;DHT22;13991;51.174;4.438;2024-01-16T05:19:02;2.70;99.90
26081;DHT22;13991;51.174;4.438;2024-01-16T05:21:28;2.70;99.90
26081;DHT22;13991;51.174;4.438;2024-01-16T05:23:54;2.80;99.90
26081;DHT22;13991;51.174;4.438;2024-01-16T05:26:19;2.80;99.90
26081;DHT22;13991;51.174;4.438;2024-01-16T05:28:45;2.70;99.90
26081;DHT22;13991;51.174;4.438;2024-01-16T05:31:10;2.50;99.90
26081;DHT22;13991;51.174;4.438;2024-01-16T05:33:36;2.60;99.90
26081;DHT22;13991;51.174;4.438;2024-01-16T05:36:02;2.70;99.90
26081;DHT22;13991;51.174;4.438;2024-01-16T05:38:27;2.50;99.90
26081;DHT22;13991;51.174;4.438;2024-01-16T05:40:53;2.60;99.90
26081;DHT22;13991;51.174;4.438;2024-01-16T05:43:19;2.50;99.90
26081;DHT22;13991;51.174;4.438;2024-01-16T05:45:44;2.50;99.90
26081;DHT22;13991;51.174;4.438;2024-01-16T05:48:10;2.50;99.90
26081;DHT22;13991;51.174;4.438;2024-01-16T05:50:36;2.50;99.90
26081;DHT22;13991;51.174;4.438;2024-01-16T05:53:02;2.50;99.90
26081;DHT22;13991;51.174;4.438;2024-01-16T05:55:28;2.50;99.90
26081;DHT22;13991;51.174;4.438;2024-01-16T05:57:57;2.50;99.90
26081;DHT22;13991;51.174;4.438;2024-01-16T06:00:24;2.60;99.90
26081;DHT22;13991;51.174;4.438;2024-01-16T06:02:50;2.60;99.90
26081;DHT22;13991;51.174;4.438;2024-01-16T06:05:16;2.50;99.90
26081;DHT22;13991;51.174;4.438;2024-01-16T06:07:42;2.50;99.90
26081;DHT22;13991;51.174;4.438;2024-01-16T06:10:08;2.60;99.90
26081;DHT22;13991;51.174;4.438;2024-01-16T06:12:34;2.60;99.90
26081;DHT22;13991;51.174;4.438;2024-01-16T06:15:00;2.50;99.90
26081;DHT22;13991;51.174;4.438;2024-01-16T06:17:26;2.50;99.90
26081;DHT22;13991;51.174;4.438;2024-01-16T06:19:51;2.60;99.90
26081;DHT22;13991;51.174;4.438;2024-01-16T06:22:17;2.60;99.90
26081;DHT22;13991;51.174;4.438;2024-01-16T06:24:42;2.50;99.90
26081;DHT22;13991;51.174;4.438;2024-01-16T06:27:08;2.50;99.90
26081;DHT22;13991;51.174;4.438;2024-01-16T06:29:34;2.60;99.90
26081;DHT22;13991;51.174;4.438;2024-01-16T06:32:00;2.60;99.90
26081;DHT22;13991;51.174;4.438;2024-01-16T06:34:27;2.60;99.90
26081;DHT22;13991;51.174;4.438;2024-01-16T06:36:52;2.60;99.90
26081;DHT22;13991;51.174;4.438;2024-01-16T06:39:18;2.60;99.90
26081;DHT22;13991;51.174;4.438;2024-01-16T06:41:44;2.60;99.90
26081;DHT22;13991;51.174;4.438;2024-01-16T06:44:09;2.70;99.90
26081;DHT22;13991;51.174;4.438;2024-01-16T06:46:35;2.80;99.90
26081;DHT22;13991;51.174;4.438;2024-01-16T06:49:01;2.80;99.90
26081;DHT22;13991;51.174;4.438;2024-01-16T06:51:27;2.80;99.90
26081;DHT22;13991;51.174;4.438;2024-01-16T06:53:53;2.80;99.90
26081;DHT22;13991;51.174;4.438;2024-01-16T06:56:19;2.90;99.90
26081;DHT22;13991;51.174;4.438;2024-01-16T06:58:44;2.90;99.90
26081;DHT22;13991;51.174;4.438;2024-01-16T07:01:10;2.90;99.90
26081;DHT22;13991;51.174;4.438;2024-01-16T07:03:36;2.90;99.90
26081;DHT22;13991;51.174;4.438;2024-01-16T07:06:03;2.90;99.90
26081;DHT22;13991;51.174;4.438;2024-01-16T07:08:28;2.90;99.90
26081;DHT22;13991;51.174;4.438;2024-01-16T07:10:54;2.90;99.90
26081;DHT22;13991;51.174;4.438;2024-01-16T07:13:20;2.90;99.90
26081;DHT22;13991;51.174;4.438;2024-01-16T07:15:45;2.80;99.90
26081;DHT22;13991;51.174;4.438;2024-01-16T07:18:11;2.90;99.90
26081;DHT22;13991;51.174;4.438;2024-01-16T07:20:37;2.90;99.90
26081;DHT22;13991;51.174;4.438;2024-01-16T07:23:04;2.90;99.90
26081;DHT22;13991;51.174;4.438;2024-01-16T07:25:29;2.80;99.90
26081;DHT22;13991;51.174;4.438;2024-01-16T07:27:56;2.90;99.90
26081;DHT22;13991;51.174;4.438;2024-01-16T07:30:22;2.90;99.90
26081;DHT22;13991;51.174;4.438;2024-01-16T07:32:47;2.90;99.90
26081;DHT22;13991;51.174;4.438;2024-01-16T07:35:13;2.80;99.90
26081;DHT22;13991;51.174;4.438;2024-01-16T07:37:39;2.90;99.90
26081;DHT22;13991;51.174;4.438;2024-01-16T07:40:05;3.00;99.90
26081;DHT22;13991;51.174;4.438;2024-01-16T07:42:32;2.90;99.90
26081;DHT22;13991;51.174;4.438;2024-01-16T07:45:00;2.90;99.90
26081;DHT22;13991;51.174;4.438;2024-01-16T07:47:32;2.80;99.90
26081;DHT22;13991;51.174;4.438;2024-01-16T07:50:01;2.90;99.90
26081;DHT22;13991;51.174;4.438;2024-01-16T07:52:28;2.90;99.90
26081;DHT22;13991;51.174;4.438;2024-01-16T07:54:54;2.90;99.90
26081;DHT22;13991;51.174;4.438;2024-01-16T07:57:19;2.90;99.90
26081;DHT22;13991;51.174;4.438;2024-01-16T07:59:46;2.90;99.90
26081;DHT22;13991;51.174;4.438;2024-01-16T08:02:12;3.00;99.90
26081;DHT22;13991;51.174;4.438;2024-01-16T08:04:37;3.10;99.90
26081;DHT22;13991;51.174;4.438;2024-01-16T08:07:03;3.00;99.90
26081;DHT22;13991;51.174;4.438;2024-01-16T08:09:29;3.00;99.90
26081;DHT22;13991;51.174;4.438;2024-01-16T08:11:55;2.90;99.90
26081;DHT22;13991;51.174;4.438;2024-01-16T08:14:20;3.00;99.90
26081;DHT22;13991;51.174;4.438;2024-01-16T08:16:46;3.20;99.90
26081;DHT22;13991;51.174;4.438;2024-01-16T08:19:13;3.00;99.90
26081;DHT22;13991;51.174;4.438;2024-01-16T08:21:38;3.20;99.90
26081;DHT22;13991;51.174;4.438;2024-01-16T08:24:04;3.10;99.90
26081;DHT22;13991;51.174;4.438;2024-01-16T08:26:30;3.20;99.90
26081;DHT22;13991;51.174;4.438;2024-01-16T08:28:56;3.30;99.90
26081;DHT22;13991;51.174;4.438;2024-01-16T08:31:21;3.10;99.90
26081;DHT22;13991;51.174;4.438;2024-01-16T08:33:47;3.00;99.90
26081;DHT22;13991;51.174;4.438;2024-01-16T08:36:14;3.10;99.90
26081;DHT22;13991;51.174;4.438;2024-01-16T08:38:40;3.10;99.90
26081;DHT22;13991;51.174;4.438;2024-01-16T08:41:06;3.20;99.90
26081;DHT22;13991;51.174;4.438;2024-01-16T08:43:35;3.20;99.90
26081;DHT22;13991;51.174;4.438;2024-01-16T08:46:01;3.10;99.90
26081;DHT22;13991;51.174;4.438;2024-01-16T08:48:26;3.10;99.90
26081;DHT22;13991;51.174;4.438;2024-01-16T08:50:52;3.20;99.90
26081;DHT22;13991;51.174;4.438;2024-01-16T08:53:20;3.20;99.90
26081;DHT22;13991;51.174;4.438;2024-01-16T08:55:48;3.30;99.90
26081;DHT22;13991;51.174;4.438;2024-01-16T08:58:14;3.20;99.90
26081;DHT22;13991;51.174;4.438;2024-01-16T09:00:40;3.20;99.90
26081;DHT22;13991;51.174;4.438;2024-01-16T09:03:06;3.20;99.90
26081;DHT22;13991;51.174;4.438;2024-01-16T09:05:33;3.10;99.90
26081;DHT22;13991;51.174;4.438;2024-01-16T09:08:01;3.10;99.90
26081;DHT22;13991;51.174;4.438;2024-01-16T09:10:28;3.20;99.90
26081;DHT22;13991;51.174;4.438;2024-01-16T09:12:55;3.30;99.90
26081;DHT22;13991;51.174;4.438;2024-01-16T09:15:20;3.30;99.90
26081;DHT22;13991;51.174;4.438;2024-01-16T09:17:46;3.40;99.90
26081;DHT22;13991;51.174;4.438;2024-01-16T09:20:12;3.40;99.90
26081;DHT22;13991;51.174;4.438;2024-01-16T09:22:37;3.50;99.90
26081;DHT22;13991;51.174;4.438;2024-01-16T09:25:03;3.50;99.90
26081;DHT22;13991;51.174;4.438;2024-01-16T09:27:29;3.50;99.90
26081;DHT22;13991;51.174;4.438;2024-01-16T09:29:55;3.50;99.90
26081;DHT22;13991;51.174;4.438;2024-01-16T09:32:20;3.60;99.90
26081;DHT22;13991;51.174;4.438;2024-01-16T09:34:46;3.50;99.90
26081;DHT22;13991;51.174;4.438;2024-01-16T09:37:11;3.60;99.90
26081;DHT22;13991;51.174;4.438;2024-01-16T09:39:40;3.60;99.90
26081;DHT22;13991;51.174;4.438;2024-01-16T09:42:06;3.50;99.90
26081;DHT22;13991;51.174;4.438;2024-01-16T09:44:32;3.60;99.90
26081;DHT22;13991;51.174;4.438;2024-01-16T09:47:01;3.60;99.90
26081;DHT22;13991;51.174;4.438;2024-01-16T09:49:27;3.70;99.90
26081;DHT22;13991;51.174;4.438;2024-01-16T09:51:54;3.60;99.90
26081;DHT22;13991;51.174;4.438;2024-01-16T09:54:20;3.70;99.90
26081;DHT22;13991;51.174;4.438;2024-01-16T09:56:48;3.70;99.90
26081;DHT22;13991;51.174;4.438;2024-01-16T09:59:17;3.70;99.90
26081;DHT22;13991;51.174;4.438;2024-01-16T10:01:45;3.70;99.90
26081;DHT22;13991;51.174;4.438;2024-01-16T10:04:11;3.90;99.90
26081;DHT22;13991;51.174;4.438;2024-01-16T10:06:38;3.70;99.90
26081;DHT22;13991;51.174;4.438;2024-01-16T10:09:04;3.90;99.90
26081;DHT22;13991;51.174;4.438;2024-01-16T10:11:30;3.90;99.90
26081;DHT22;13991;51.174;4.438;2024-01-16T10:13:58;4.00;99.90
26081;DHT22;13991;51.174;4.438;2024-01-16T10:16:59;4.00;99.90
26081;DHT22;13991;51.174;4.438;2024-01-16T10:19:29;4.00;99.90
26081;DHT22;13991;51.174;4.438;2024-01-16T10:22:04;4.00;99.90
26081;DHT22;13991;51.174;4.438;2024-01-16T10:24:31;4.10;99.90
26081;DHT22;13991;51.174;4.438;2024-01-16T10:27:01;4.20;99.90
26081;DHT22;13991;51.174;4.438;2024-01-16T10:29:31;4.20;99.90
26081;DHT22;13991;51.174;4.438;2024-01-16T10:32:00;4.30;99.90
26081;DHT22;13991;51.174;4.438;2024-01-16T10:34:26;4.30;99.90
26081;DHT22;13991;51.174;4.438;2024-01-16T10:36:58;4.40;99.90
26081;DHT22;13991;51.174;4.438;2024-01-16T10:39:25;4.40;99.90
26081;DHT22;13991;51.174;4.438;2024-01-16T10:41:56;4.50;99.90
26081;DHT22;13991;51.174;4.438;2024-01-16T10:44:22;4.60;99.90
26081;DHT22;13991;51.174;4.438;2024-01-16T10:46:48;4.60;99.90
26081;DHT22;13991;51.174;4.438;2024-01-16T10:49:13;4.70;99.90
26081;DHT22;13991;51.174;4.438;2024-01-16T10:51:43;4.80;99.90
26081;DHT22;13991;51.174;4.438;2024-01-16T10:54:12;4.90;99.90
26081;DHT22;13991;51.174;4.438;2024-01-16T10:56:44;5.10;99.90
26081;DHT22;13991;51.174;4.438;2024-01-16T10:59:24;5.20;99.90
26081;DHT22;13991;51.174;4.438;2024-01-16T11:01:54;5.10;99.90
26081;DHT22;13991;51.174;4.438;2024-01-16T11:04:20;5.10;99.90
26081;DHT22;13991;51.174;4.438;2024-01-16T11:06:52;5.20;99.90
26081;DHT22;13991;51.174;4.438;2024-01-16T11:09:18;5.30;99.90
26081;DHT22;13991;51.174;4.438;2024-01-16T11:11:46;5.40;99.90
26081;DHT22;13991;51.174;4.438;2024-01-16T11:14:16;5.50;99.90
26081;DHT22;13991;51.174;4.438;2024-01-16T11:16:42;5.50;99.90
26081;DHT22;13991;51.174;4.438;2024-01-16T11:19:09;5.60;99.90
26081;DHT22;13991;51.174;4.438;2024-01-16T11:21:36;5.70;99.90
26081;DHT22;13991;51.174;4.438;2024-01-16T11:24:02;5.60;99.90
26081;DHT22;13991;51.174;4.438;2024-01-16T11:26:32;5.50;99.90
26081;DHT22;13991;51.174;4.438;2024-01-16T11:28:58;5.50;99.90
26081;DHT22;13991;51.174;4.438;2024-01-16T11:31:32;5.40;99.90
26081;DHT22;13991;51.174;4.438;2024-01-16T11:33:58;5.50;99.90
26081;DHT22;13991;51.174;4.438;2024-01-16T11:36:49;5.40;99.90
26081;DHT22;13991;51.174;4.438;2024-01-16T11:39:23;5.40;99.90
26081;DHT22;13991;51.174;4.438;2024-01-16T11:44:41;5.50;99.90
26081;DHT22;13991;51.174;4.438;2024-01-16T11:47:22;5.50;99.90
26081;DHT22;13991;51.174;4.438;2024-01-16T11:50:09;5.60;99.90
26081;DHT22;13991;51.174;4.438;2024-01-16T11:52:44;5.60;99.90
26081;DHT22;13991;51.174;4.438;2024-01-16T12:00:50;5.60;99.90
26081;DHT22;13991;51.174;4.438;2024-01-16T12:03:19;5.60;99.90
26081;DHT22;13991;51.174;4.438;2024-01-16T12:05:58;5.60;99.90
26081;DHT22;13991;51.174;4.438;2024-01-16T12:08:24;5.70;99.90
26081;DHT22;13991;51.174;4.438;2024-01-16T12:10:50;5.80;99.90
26081;DHT22;13991;51.174;4.438;2024-01-16T12:13:16;5.80;99.90
26081;DHT22;13991;51.174;4.438;2024-01-16T12:15:42;5.90;99.90
26081;DHT22;13991;51.174;4.438;2024-01-16T12:18:08;5.90;99.90
26081;DHT22;13991;51.174;4.438;2024-01-16T12:20:35;5.90;99.90
26081;DHT22;13991;51.174;4.438;2024-01-16T12:23:06;6.00;99.90
26081;DHT22;13991;51.174;4.438;2024-01-16T12:25:33;6.10;99.90
26081;DHT22;13991;51.174;4.438;2024-01-16T12:28:04;6.20;99.90
26081;DHT22;13991;51.174;4.438;2024-01-16T12:30:31;6.20;99.90
26081;DHT22;13991;51.174;4.438;2024-01-16T12:35:37;6.30;99.90
26081;DHT22;13991;51.174;4.438;2024-01-16T12:38:04;6.10;99.90
26081;DHT22;13991;51.174;4.438;2024-01-16T12:40:32;6.00;99.90
26081;DHT22;13991;51.174;4.438;2024-01-16T12:42:57;6.00;99.90
26081;DHT22;13991;51.174;4.438;2024-01-16T12:45:23;5.90;99.90
26081;DHT22;13991;51.174;4.438;2024-01-16T12:47:53;5.90;99.90
26081;DHT22;13991;51.174;4.438;2024-01-16T12:50:20;6.00;99.90
26081;DHT22;13991;51.174;4.438;2024-01-16T12:52:48;6.00;99.90
26081;DHT22;13991;51.174;4.438;2024-01-16T12:55:14;6.00;99.90
26081;DHT22;13991;51.174;4.438;2024-01-16T12:57:41;6.10;99.90
26081;DHT22;13991;51.174;4.438;2024-01-16T13:00:25;6.00;99.90
26081;DHT22;13991;51.174;4.438;2024-01-16T13:02:52;6.00;99.90
26081;DHT22;13991;51.174;4.438;2024-01-16T13:05:18;6.00;99.90
26081;DHT22;13991;51.174;4.438;2024-01-16T13:07:44;6.10;99.90
26081;DHT22;13991;51.174;4.438;2024-01-16T13:10:11;6.00;99.90
26081;DHT22;13991;51.174;4.438;2024-01-16T13:12:37;6.00;99.90
26081;DHT22;13991;51.174;4.438;2024-01-16T13:15:04;6.10;99.90
26081;DHT22;13991;51.174;4.438;2024-01-16T13:17:33;6.10;99.90
26081;DHT22;13991;51.174;4.438;2024-01-16T13:20:00;6.10;99.90
26081;DHT22;13991;51.174;4.438;2024-01-16T13:22:25;6.10;99.90
26081;DHT22;13991;51.174;4.438;2024-01-16T13:24:51;6.10;99.90
26081;DHT22;13991;51.174;4.438;2024-01-16T13:27:17;6.10;99.90
26081;DHT22;13991;51.174;4.438;2024-01-16T13:29:42;6.10;99.90
26081;DHT22;13991;51.174;4.438;2024-01-16T13:32:10;6.10;99.90
26081;DHT22;13991;51.174;4.438;2024-01-16T13:34:36;6.10;99.90
26081;DHT22;13991;51.174;4.438;2024-01-16T13:37:03;6.10;99.90
26081;DHT22;13991;51.174;4.438;2024-01-16T13:39:30;6.00;99.90
26081;DHT22;13991;51.174;4.438;2024-01-16T13:42:01;6.10;99.90
26081;DHT22;13991;51.174;4.438;2024-01-16T13:44:31;6.10;99.90
26081;DHT22;13991;51.174;4.438;2024-01-16T13:46:56;6.00;99.90
26081;DHT22;13991;51.174;4.438;2024-01-16T13:49:22;5.90;99.90
26081;DHT22;13991;51.174;4.438;2024-01-16T13:51:48;5.90;99.90
26081;DHT22;13991;51.174;4.438;2024-01-16T13:54:13;6.10;99.90
26081;DHT22;13991;51.174;4.438;2024-01-16T13:56:39;6.00;99.90
26081;DHT22;13991;51.174;4.438;2024-01-16T13:59:04;6.10;99.90
26081;DHT22;13991;51.174;4.438;2024-01-16T14:01:30;6.10;99.90
26081;DHT22;13991;51.174;4.438;2024-01-16T14:03:56;6.00;99.90
26081;DHT22;13991;51.174;4.438;2024-01-16T14:06:21;6.00;99.90
26081;DHT22;13991;51.174;4.438;2024-01-16T14:08:47;6.00;99.90
26081;DHT22;13991;51.174;4.438;2024-01-16T14:11:12;6.00;99.90
26081;DHT22;13991;51.174;4.438;2024-01-16T14:13:38;6.00;99.90
26081;DHT22;13991;51.174;4.438;2024-01-16T14:16:04;5.90;99.90
26081;DHT22;13991;51.174;4.438;2024-01-16T14:18:30;5.80;99.90
26081;DHT22;13991;51.174;4.438;2024-01-16T14:20:56;5.70;99.90
26081;DHT22;13991;51.174;4.438;2024-01-16T14:23:21;5.70;99.90
26081;DHT22;13991;51.174;4.438;2024-01-16T14:25:47;5.70;99.90
26081;DHT22;13991;51.174;4.438;2024-01-16T14:28:13;5.70;99.90
26081;DHT22;13991;51.174;4.438;2024-01-16T14:30:38;5.60;99.90
26081;DHT22;13991;51.174;4.438;2024-01-16T14:33:05;5.60;99.90
26081;DHT22;13991;51.174;4.438;2024-01-16T14:35:34;5.60;99.90
26081;DHT22;13991;51.174;4.438;2024-01-16T14:37:59;5.50;99.90
26081;DHT22;13991;51.174;4.438;2024-01-16T14:40:25;5.50;99.90
26081;DHT22;13991;51.174;4.438;2024-01-16T14:42:52;5.50;99.90
26081;DHT22;13991;51.174;4.438;2024-01-16T14:45:25;5.50;99.90
26081;DHT22;13991;51.174;4.438;2024-01-16T14:47:52;5.50;99.90
26081;DHT22;13991;51.174;4.438;2024-01-16T14:50:20;5.50;99.90
26081;DHT22;13991;51.174;4.438;2024-01-16T14:52:48;5.40;99.90
26081;DHT22;13991;51.174;4.438;2024-01-16T14:55:14;5.40;99.90
26081;DHT22;13991;51.174;4.438;2024-01-16T14:57:40;5.40;99.90
26081;DHT22;13991;51.174;4.438;2024-01-16T15:00:17;5.40;99.90
26081;DHT22;13991;51.174;4.438;2024-01-16T15:02:49;5.40;99.90
26081;DHT22;13991;51.174;4.438;2024-01-16T15:05:15;5.40;99.90
26081;DHT22;13991;51.174;4.438;2024-01-16T15:07:42;5.40;99.90
26081;DHT22;13991;51.174;4.438;2024-01-16T15:10:09;5.40;99.90
26081;DHT22;13991;51.174;4.438;2024-01-16T15:12:39;5.40;99.90
26081;DHT22;13991;51.174;4.438;2024-01-16T15:15:06;5.30;99.90
26081;DHT22;13991;51.174;4.438;2024-01-16T15:17:33;5.30;99.90
26081;DHT22;13991;51.174;4.438;2024-01-16T15:19:58;5.30;99.90
26081;DHT22;13991;51.174;4.438;2024-01-16T15:22:24;5.30;99.90
26081;DHT22;13991;51.174;4.438;2024-01-16T15:24:50;5.20;99.90
26081;DHT22;13991;51.174;4.438;2024-01-16T15:27:15;5.20;99.90
26081;DHT22;13991;51.174;4.438;2024-01-16T15:29:41;5.10;99.90
26081;DHT22;13991;51.174;4.438;2024-01-16T15:32:07;5.00;99.90
26081;DHT22;13991;51.174;4.438;2024-01-16T15:34:32;5.00;99.90
26081;DHT22;13991;51.174;4.438;2024-01-16T15:36:58;4.90;99.90
26081;DHT22;13991;51.174;4.438;2024-01-16T15:39:24;4.90;99.90
26081;DHT22;13991;51.174;4.438;2024-01-16T15:41:50;4.80;99.90
26081;DHT22;13991;51.174;4.438;2024-01-16T15:44:15;4.90;99.90
26081;DHT22;13991;51.174;4.438;2024-01-16T15:46:58;4.90;99.90
26081;DHT22;13991;51.174;4.438;2024-01-16T15:49:25;4.70;99.90
26081;DHT22;13991;51.174;4.438;2024-01-16T15:51:51;4.80;99.90
26081;DHT22;13991;51.174;4.438;2024-01-16T15:54:17;4.80;99.90